WTTO2: Illinois River, Watts, OK

                                SHEF ID:       WTTO2     Illinois River near Watts, OK
STATION TYPE: Stream Gauge
Regulating: Stage = 13.00, Flow = 11165

PRECIP STAGE STAGE(2) RIV-FLOW WTR-TEMP VOLTAGE BAT-LOAD
in ft ft cfs F volt volt
Ccp-Rev Ccp-Rev Ccp-Rev Ccp-Rev Ccp-Rev Ccp-Rev Ccp-Rev
(America/Chicago)
08/27 00:00 0.00 1.98 ---- 187 83.55 ---- 12.76
08/27 01:00 0.00 2.04 ---- 200 83.44 ---- 12.74
08/27 02:00 0.00 2.08 ---- 209 83.23 ---- 12.73
08/27 03:00 0.00 2.10 ---- 213 83.08 ---- 12.73
08/27 04:00 0.00 2.11 ---- 215 82.92 ---- 12.72
08/27 05:00 0.00 2.12 ---- 218 82.74 ---- 12.71
08/27 06:00 0.00 2.13 ---- 220 82.62 ---- 12.70
08/27 07:00 0.00 2.13 ---- 220 82.56 ---- 12.68
08/27 08:00 0.00 2.14 ---- 222 82.67 ---- 12.78
08/27 09:00 0.00 2.14 ---- 222 82.81 ---- 13.56
08/27 10:00 0.00 2.28 ---- 256 83.03 ---- 13.57
08/27 11:00 0.00 2.28 ---- 256 83.14 ---- 13.56
08/27 12:00 0.00 2.21 ---- 239 83.35 ---- 13.57
08/27 13:00 0.00 2.20 ---- 236 83.62 ---- 13.58
08/27 14:00 0.00 2.18 ---- 232 83.77 ---- 13.40
08/27 15:00 0.00 2.17 ---- 229 83.70 ---- 13.52
08/27 16:00 0.00 2.22 ---- 241 83.64 ---- 13.35
08/27 17:00 0.00 2.32 ---- 266 83.48 ---- 13.36
08/27 18:00 0.00 2.32 ---- 266 83.26 ---- 13.34
08/27 19:00 0.00 2.07 ---- 206 83.07 ---- 13.31
08/27 20:00 0.00 1.91 ---- 173 82.80 ---- 13.17
08/27 21:00 0.00 1.89 ---- 169 82.54 ---- 12.93
08/27 22:00 0.00 1.95 ---- 181 82.35 ---- 12.83
08/27 23:00 0.00 1.98 ---- 187 82.31 ---- 12.80
Data processed at Fri 28Aug2026 04:35 GMT

NOTICE: If you are parsing this page

Please convert to using our Data API. Starting early 2026 we will be migrating to: https://water.usace.army.mil with modern pages rendered in JavaScript. When this migration completes you will no longer be able to scrape this page! CWMSDataAPI (CDA)

Timeseries IDs (TSIDs)

TSIDs used from left to right in the data table
WATT.Precip-Inc.Total.1Hour.1Hour.Ccp-Rev
WATT.Stage.Inst.1Hour.0.Ccp-Rev
WATT.Stage-Alt.Inst.1Hour.0.Ccp-Rev
WATT.Flow.Inst.1Hour.0.Ccp-Rev
WATT.Temp-Water.Inst.1Hour.0.Ccp-Rev
WATT.Volt-Battery.Inst.1Hour.0.Ccp-Rev
WATT.Volt-Battery Load.Inst.1Hour.0.Ccp-Rev

                            

All information presented herein is the property of the government of the United States of America and may be revised or deleted at any time without prior notice. Dissemination of this information without the expressed written consent of the Public Affairs Office, Tulsa District U.S. Army Corps of Engineers is strictly prohibited. These data are gathered electronically and, as presented, have NOT undergone any form of quality control. These data are NOT guaranteed to be valid or correct.